createdAt,value
2023-05-11T00:01:12.353Z,21.17
2023-05-11T00:05:14.794Z,22.08
2023-05-11T00:09:16.879Z,20.50
2023-05-11T00:13:20.446Z,21.83
2023-05-11T00:17:22.637Z,21.43
2023-05-11T00:21:25.376Z,20.58
2023-05-11T00:25:27.449Z,21.55
2023-05-11T00:29:29.456Z,21.13
2023-05-11T00:33:31.779Z,21.65
2023-05-11T00:37:34.060Z,20.23
2023-05-11T00:41:36.563Z,21.67
2023-05-11T00:45:40.044Z,21.52
2023-05-11T00:49:42.449Z,21.67
2023-05-11T00:53:44.492Z,20.75
2023-05-11T00:57:46.753Z,22.88
2023-05-11T01:01:48.928Z,20.50
2023-05-11T01:06:19.625Z,21.67
2023-05-11T01:10:48.931Z,19.95
2023-05-11T01:15:17.207Z,19.42
2023-05-11T01:19:39.797Z,20.42
2023-05-11T01:23:59.520Z,20.67
2023-05-11T01:28:27.761Z,21.80
2023-05-11T01:32:34.414Z,21.73
2023-05-11T01:36:44.785Z,22.55
2023-05-11T01:40:54.505Z,24.25
2023-05-11T01:44:58.312Z,23.27
2023-05-11T01:49:06.873Z,23.15
2023-05-11T01:53:12.316Z,23.13
2023-05-11T01:57:16.647Z,24.35
2023-05-11T02:01:19.864Z,22.50
2023-05-11T02:05:24.936Z,21.70
2023-05-11T02:09:34.260Z,21.77
2023-05-11T02:13:43.676Z,19.92
2023-05-11T02:17:46.191Z,19.83
2023-05-11T02:21:51.919Z,19.98
2023-05-11T02:25:55.577Z,20.15
2023-05-11T02:29:58.282Z,19.30
2023-05-11T02:34:07.695Z,18.50
2023-05-11T02:38:11.843Z,19.67
2023-05-11T02:46:21.729Z,19.45
2023-05-11T02:50:27.229Z,19.70
2023-05-11T02:54:32.161Z,20.27
2023-05-11T02:58:35.678Z,19.08
2023-05-11T03:03:07.560Z,20.10
2023-05-11T03:07:10.504Z,19.98
2023-05-11T03:11:15.142Z,20.42
2023-05-11T03:15:18.105Z,19.48
2023-05-11T03:19:24.089Z,21.63
2023-05-11T03:23:28.239Z,20.42
2023-05-11T03:27:32.191Z,20.77
2023-05-11T03:31:35.085Z,19.98
2023-05-11T03:35:40.001Z,19.75
2023-05-11T03:39:45.754Z,19.73
2023-05-11T03:43:51.938Z,19.85
2023-05-11T03:47:57.605Z,20.17
2023-05-11T03:52:00.392Z,19.45
2023-05-11T03:56:04.631Z,19.05
2023-05-11T04:00:08.381Z,19.77
2023-05-11T04:04:17.392Z,19.30
2023-05-11T04:08:19.577Z,18.15
2023-05-11T04:12:21.896Z,19.83
2023-05-11T04:16:24.057Z,20.45
2023-05-11T04:20:26.348Z,20.60
2023-05-11T04:24:28.475Z,18.60
2023-05-11T04:28:30.583Z,21.10
2023-05-11T04:32:33.250Z,22.23
2023-05-11T04:36:35.498Z,21.60
2023-05-11T04:40:38.170Z,23.20
2023-05-11T04:44:41.013Z,24.83
2023-05-11T04:48:43.482Z,24.27
2023-05-11T04:52:46.889Z,26.93
2023-05-11T04:56:49.012Z,26.77
2023-05-11T05:00:51.644Z,25.25
2023-05-11T05:04:54.412Z,26.23
2023-05-11T05:08:56.830Z,25.80
2023-05-11T05:12:59.023Z,27.15
2023-05-11T05:17:01.707Z,27.45
2023-05-11T05:21:04.854Z,26.67
2023-05-11T05:25:07.980Z,26.02
2023-05-11T05:29:10.260Z,26.35
2023-05-11T05:33:13.546Z,24.77
2023-05-11T05:37:16.202Z,24.15
2023-05-11T05:41:18.914Z,23.65
2023-05-11T05:45:22.664Z,23.77
2023-05-11T05:49:26.441Z,22.20
2023-05-11T05:53:28.654Z,21.90
2023-05-11T05:57:30.865Z,21.80
2023-05-11T06:01:33.676Z,22.38
2023-05-11T06:05:35.797Z,20.80
2023-05-11T06:09:39.424Z,20.83
2023-05-11T06:13:41.682Z,21.30
2023-05-11T06:17:44.755Z,19.92
2023-05-11T06:21:48.651Z,18.92
2023-05-11T06:25:51.172Z,17.85
2023-05-11T06:29:55.722Z,18.13
2023-05-11T06:33:57.867Z,16.48
2023-05-11T06:38:03.222Z,13.63
2023-05-11T06:42:06.754Z,9.18
2023-05-11T06:50:12.442Z,8.02
2023-05-11T06:54:14.515Z,7.53
2023-05-11T06:58:20.583Z,7.72
2023-05-11T07:02:22.800Z,8.50
2023-05-11T07:06:24.821Z,8.25
2023-05-11T07:10:27.105Z,8.77
2023-05-11T07:14:29.152Z,8.82
2023-05-11T07:18:31.812Z,8.75
2023-05-11T07:22:33.941Z,8.27
2023-05-11T07:26:36.033Z,8.82
2023-05-11T07:30:38.119Z,7.50
2023-05-11T07:34:41.270Z,8.55
2023-05-11T07:38:43.401Z,8.10
2023-05-11T07:42:45.550Z,7.82
2023-05-11T07:46:47.830Z,7.85
2023-05-11T07:50:49.984Z,7.78
2023-05-11T07:54:52.634Z,7.95
2023-05-11T07:58:54.723Z,7.47
2023-05-11T08:02:56.985Z,8.60
2023-05-11T08:06:59.143Z,7.85
2023-05-11T08:11:01.929Z,8.20
2023-05-11T08:15:05.613Z,9.32
2023-05-11T08:19:08.209Z,7.72
2023-05-11T08:23:11.036Z,5.93
2023-05-11T08:27:15.363Z,5.85
2023-05-11T08:31:18.619Z,6.93
2023-05-11T08:35:21.578Z,6.18
2023-05-11T08:39:38.881Z,6.23
2023-05-11T08:43:47.405Z,5.60
2023-05-11T08:47:49.866Z,6.05
2023-05-11T08:51:52.192Z,5.70
2023-05-11T08:55:58.415Z,6.32
2023-05-11T09:00:03.124Z,5.25
2023-05-11T09:04:06.956Z,5.20
2023-05-11T09:08:12.810Z,5.15
2023-05-11T09:12:16.478Z,7.40
2023-05-11T09:16:33.003Z,7.07
2023-05-11T09:20:43.779Z,5.00
2023-05-11T09:24:46.733Z,5.85
2023-05-11T09:29:03.678Z,5.47
2023-05-11T09:33:06.938Z,6.50
2023-05-11T09:37:16.762Z,6.05
2023-05-11T09:41:20.472Z,6.40
2023-05-11T09:45:43.078Z,7.43
2023-05-11T09:49:47.776Z,6.70
2023-05-11T09:53:49.946Z,7.43
2023-05-11T09:57:59.898Z,7.43
2023-05-11T10:02:17.394Z,7.22
2023-05-11T10:06:20.470Z,7.10
2023-05-11T10:10:22.934Z,5.00
2023-05-11T10:14:27.001Z,5.93
2023-05-11T10:22:31.659Z,5.03
2023-05-11T10:26:33.898Z,5.80
2023-05-11T10:30:37.341Z,5.60
2023-05-11T10:34:39.997Z,6.45
2023-05-11T10:38:42.295Z,5.85
2023-05-11T10:43:13.685Z,7.90
2023-05-11T10:47:22.242Z,7.22
2023-05-11T10:51:52.611Z,8.25
2023-05-11T10:56:17.900Z,6.93
2023-05-11T11:00:31.635Z,8.05
2023-05-11T11:04:50.859Z,5.20
2023-05-11T11:09:03.496Z,8.85
2023-05-11T11:13:11.692Z,9.20
2023-05-11T11:17:25.764Z,9.00
2023-05-11T11:25:53.035Z,5.78
2023-05-11T11:30:17.917Z,6.90
2023-05-11T11:34:29.272Z,8.23
2023-05-11T11:38:33.220Z,5.72
2023-05-11T11:50:47.977Z,6.93
2023-05-11T11:54:50.261Z,4.93
2023-05-11T11:58:52.443Z,3.25
2023-05-11T12:02:55.632Z,3.33
2023-05-11T12:06:59.080Z,2.80
2023-05-11T12:11:02.233Z,2.90
2023-05-11T12:15:06.810Z,6.18
2023-05-11T12:19:09.435Z,6.88
2023-05-11T12:23:12.684Z,7.07
2023-05-11T12:33:28.610Z,10.27
2023-05-11T12:37:32.612Z,8.50
2023-05-11T12:41:39.486Z,5.47
2023-05-11T12:45:52.393Z,4.53
2023-05-11T13:01:02.899Z,4.88
2023-05-11T13:10:27.069Z,6.68
2023-05-11T13:14:47.854Z,6.45
2023-05-11T13:19:17.410Z,7.30
2023-05-11T13:28:28.743Z,8.73
2023-05-11T13:32:55.888Z,12.32
2023-05-11T13:37:09.068Z,13.90
2023-05-11T13:41:22.663Z,16.20
2023-05-11T13:45:34.278Z,20.30
2023-05-11T13:49:41.035Z,24.10
2023-05-11T13:53:51.609Z,23.20
2023-05-11T13:58:01.460Z,28.15
2023-05-11T14:02:08.056Z,36.83
2023-05-11T14:06:29.868Z,29.50
2023-05-11T14:10:35.694Z,16.02
2023-05-11T14:14:41.960Z,14.38
2023-05-11T14:19:05.331Z,18.27
2023-05-11T14:23:12.455Z,18.27
2023-05-11T14:27:22.366Z,22.50
2023-05-11T14:31:40.348Z,27.00
2023-05-11T14:35:56.745Z,24.00
2023-05-11T14:40:03.961Z,29.00
2023-05-11T14:44:15.114Z,30.52
2023-05-11T14:52:36.277Z,24.98
2023-05-11T14:57:09.262Z,28.58
2023-05-11T15:01:24.238Z,29.92
2023-05-11T15:05:39.633Z,32.08
2023-05-11T15:09:50.829Z,29.73
2023-05-11T15:14:02.477Z,36.10
2023-05-11T15:18:08.079Z,34.03
2023-05-11T15:22:23.341Z,33.17
2023-05-11T15:26:36.982Z,35.72
2023-05-11T15:30:56.329Z,35.28
2023-05-11T15:35:10.377Z,35.28
2023-05-11T15:39:44.064Z,33.85
2023-05-11T15:44:05.401Z,40.53
2023-05-11T15:48:12.549Z,30.20
2023-05-11T16:04:15.783Z,17.80
2023-05-11T16:08:19.089Z,14.48
2023-05-11T16:12:21.909Z,11.38
2023-05-11T16:16:24.674Z,12.02
2023-05-11T16:20:27.526Z,9.52
2023-05-11T16:24:34.580Z,11.57
2023-05-11T16:28:37.993Z,13.80
2023-05-11T16:32:44.270Z,19.10
2023-05-11T16:36:58.748Z,23.02
2023-05-11T16:41:07.443Z,18.63
2023-05-11T16:45:10.960Z,18.38
2023-05-11T16:49:18.901Z,23.17
2023-05-11T16:53:35.598Z,22.27
2023-05-11T16:58:08.214Z,18.15
2023-05-11T17:02:18.000Z,21.13
2023-05-11T17:06:33.249Z,23.30
2023-05-11T17:10:39.513Z,25.83
2023-05-11T17:14:54.726Z,27.02
2023-05-11T17:19:01.822Z,22.55
2023-05-11T17:23:09.420Z,24.17
2023-05-11T17:27:26.982Z,22.90
2023-05-11T17:31:42.845Z,21.40
2023-05-11T17:35:53.684Z,16.95
2023-05-11T17:40:05.612Z,19.67
2023-05-11T17:44:19.974Z,19.13
2023-05-11T17:48:41.880Z,18.95
2023-05-11T17:52:51.652Z,23.08
2023-05-11T17:57:08.277Z,23.58
2023-05-11T18:01:15.976Z,19.45
2023-05-11T18:05:33.294Z,19.00
2023-05-11T18:09:54.899Z,17.08
2023-05-11T18:14:08.786Z,19.55
2023-05-11T18:18:30.085Z,22.60
2023-05-11T18:22:53.924Z,19.75
2023-05-11T18:27:06.660Z,19.40
2023-05-11T18:31:33.132Z,20.95
2023-05-11T18:36:14.913Z,21.67
2023-05-11T18:40:35.704Z,24.02
2023-05-11T18:44:53.023Z,22.50
2023-05-11T18:49:09.738Z,19.10
2023-05-11T18:53:21.898Z,20.73
2023-05-11T18:57:38.791Z,21.40
2023-05-11T19:01:54.639Z,18.50
2023-05-11T19:06:18.897Z,17.63
2023-05-11T19:10:26.206Z,17.83
2023-05-11T19:14:47.927Z,15.52
2023-05-11T19:19:10.453Z,16.45
2023-05-11T19:23:24.145Z,13.50
2023-05-11T19:27:36.760Z,14.13
2023-05-11T19:31:48.990Z,13.88
2023-05-11T19:36:13.609Z,12.37
2023-05-11T19:44:46.471Z,12.02
2023-05-11T19:49:22.097Z,10.73
2023-05-11T19:53:34.933Z,11.88
2023-05-11T19:58:00.700Z,12.10
2023-05-11T20:02:31.917Z,9.90
2023-05-11T20:06:57.918Z,10.05
2023-05-11T20:11:41.851Z,10.63
2023-05-11T20:15:56.420Z,9.38
2023-05-11T20:20:07.347Z,9.60
2023-05-11T20:24:27.904Z,9.70
2023-05-11T20:28:44.262Z,10.90
2023-05-11T20:37:28.916Z,10.45
2023-05-11T20:41:49.517Z,12.60
2023-05-11T20:46:18.454Z,12.00
2023-05-11T20:50:40.912Z,9.85
2023-05-11T20:54:58.425Z,10.70
2023-05-11T20:59:07.728Z,11.52
2023-05-11T21:03:22.077Z,11.40
2023-05-11T21:11:48.002Z,10.32
2023-05-11T21:16:09.083Z,11.52
2023-05-11T21:20:35.396Z,12.98
2023-05-11T21:24:48.770Z,11.95
2023-05-11T21:29:13.022Z,13.18
2023-05-11T21:33:26.956Z,13.00
2023-05-11T21:37:47.534Z,13.57
2023-05-11T21:42:21.483Z,13.48
2023-05-11T21:46:38.113Z,14.80
2023-05-11T21:50:51.901Z,15.70
2023-05-11T21:59:35.299Z,12.40
2023-05-11T22:03:48.188Z,14.68
2023-05-11T22:08:14.973Z,12.77
2023-05-11T22:12:32.617Z,14.18
2023-05-11T22:16:55.518Z,12.15
2023-05-11T22:21:05.333Z,13.32
2023-05-11T22:25:21.986Z,12.85
2023-05-11T22:29:37.647Z,14.20
2023-05-11T22:33:46.870Z,13.18
2023-05-11T22:38:01.917Z,13.80
2023-05-11T22:42:24.079Z,13.10
2023-05-11T22:46:28.441Z,13.55
2023-05-11T22:50:52.127Z,14.10
2023-05-11T22:55:18.624Z,13.07
2023-05-11T22:59:47.243Z,13.52
2023-05-11T23:04:36.209Z,13.63
2023-05-11T23:08:56.043Z,11.88
2023-05-11T23:13:14.299Z,12.87
2023-05-11T23:17:37.305Z,11.75
2023-05-11T23:22:08.409Z,12.80
2023-05-11T23:26:30.015Z,11.38
2023-05-11T23:35:39.487Z,11.10
2023-05-11T23:51:05.781Z,12.30
2023-05-11T23:55:35.542Z,13.75
